sensor_id;sensor_type;location;lat;lon;timestamp;pressure;altitude;pressure_sealevel;temperature;humidity
21594;BME280;10959;51.328;7.322;2023-06-05T00:00:02;74138.72;;;-147.06;43.13
21594;BME280;10959;51.328;7.322;2023-06-05T00:02:32;74146.91;;;-147.06;43.97
21594;BME280;10959;51.328;7.322;2023-06-05T00:04:58;74157.16;;;-147.06;43.88
21594;BME280;10959;51.328;7.322;2023-06-05T00:07:26;74161.25;;;-147.06;44.13
21594;BME280;10959;51.328;7.322;2023-06-05T00:09:54;74171.50;;;-147.06;44.53
21594;BME280;10959;51.328;7.322;2023-06-05T00:12:20;74191.97;;;-147.06;45.04
21594;BME280;10959;51.328;7.322;2023-06-05T00:14:47;74194.03;;;-147.06;44.85
21594;BME280;10959;51.328;7.322;2023-06-05T00:17:13;74185.84;;;-147.06;45.09
21594;BME280;10959;51.328;7.322;2023-06-05T00:19:40;74183.78;;;-147.06;45.06
21594;BME280;10959;51.328;7.322;2023-06-05T00:22:06;74196.06;;;-147.06;45.67
21594;BME280;10959;51.328;7.322;2023-06-05T00:24:32;74191.97;;;-147.06;45.18
21594;BME280;10959;51.328;7.322;2023-06-05T00:27:00;74175.59;;;-147.06;44.84
21594;BME280;10959;51.328;7.322;2023-06-05T00:29:26;74171.50;;;-147.06;44.64
21594;BME280;10959;51.328;7.322;2023-06-05T00:31:53;74163.28;;;-147.06;44.97
21594;BME280;10959;51.328;7.322;2023-06-05T00:34:19;74171.50;;;-147.06;45.13
21594;BME280;10959;51.328;7.322;2023-06-05T00:36:46;74187.88;;;-147.06;45.69
21594;BME280;10959;51.328;7.322;2023-06-05T00:39:15;74200.19;;;-147.06;45.97
21594;BME280;10959;51.328;7.322;2023-06-05T00:41:44;74194.03;;;-147.06;45.45
21594;BME280;10959;51.328;7.322;2023-06-05T00:44:12;74189.94;;;-147.06;45.35
21594;BME280;10959;51.328;7.322;2023-06-05T00:46:38;74175.59;;;-147.06;44.76
21594;BME280;10959;51.328;7.322;2023-06-05T00:49:05;74175.59;;;-147.06;45.32
21594;BME280;10959;51.328;7.322;2023-06-05T00:51:32;74187.88;;;-147.06;45.40
21594;BME280;10959;51.328;7.322;2023-06-05T00:53:59;74179.69;;;-147.06;45.08
21594;BME280;10959;51.328;7.322;2023-06-05T00:56:26;74169.44;;;-147.06;44.82
21594;BME280;10959;51.328;7.322;2023-06-05T00:58:53;74159.19;;;-147.06;44.72
21594;BME280;10959;51.328;7.322;2023-06-05T01:01:22;74159.19;;;-147.06;43.94
21594;BME280;10959;51.328;7.322;2023-06-05T01:03:49;74148.97;;;-147.06;43.62
21594;BME280;10959;51.328;7.322;2023-06-05T01:06:16;74142.81;;;-147.06;43.41
21594;BME280;10959;51.328;7.322;2023-06-05T01:08:44;74138.72;;;-147.06;43.33
21594;BME280;10959;51.328;7.322;2023-06-05T01:11:17;74142.81;;;-147.06;43.39
21594;BME280;10959;51.328;7.322;2023-06-05T01:13:50;74142.81;;;-147.06;43.67
21594;BME280;10959;51.328;7.322;2023-06-05T01:16:21;74138.72;;;-147.06;43.47
21594;BME280;10959;51.328;7.322;2023-06-05T01:18:55;74142.81;;;-147.06;43.67
21594;BME280;10959;51.328;7.322;2023-06-05T01:21:27;74146.91;;;-147.06;44.01
21594;BME280;10959;51.328;7.322;2023-06-05T01:23:55;74146.91;;;-147.06;43.89
21594;BME280;10959;51.328;7.322;2023-06-05T01:26:27;74167.41;;;-147.06;43.70
21594;BME280;10959;51.328;7.322;2023-06-05T01:28:57;74157.16;;;-147.06;43.83
21594;BME280;10959;51.328;7.322;2023-06-05T01:31:25;74159.19;;;-147.06;43.85
21594;BME280;10959;51.328;7.322;2023-06-05T01:33:56;74163.28;;;-147.06;43.92
21594;BME280;10959;51.328;7.322;2023-06-05T01:36:27;74163.28;;;-147.06;44.38
21594;BME280;10959;51.328;7.322;2023-06-05T01:38:56;74179.69;;;-147.06;44.34
21594;BME280;10959;51.328;7.322;2023-06-05T01:41:26;74171.50;;;-147.06;44.62
21594;BME280;10959;51.328;7.322;2023-06-05T01:43:53;74181.72;;;-147.06;44.48
21594;BME280;10959;51.328;7.322;2023-06-05T01:46:22;74185.84;;;-147.06;44.50
21594;BME280;10959;51.328;7.322;2023-06-05T01:48:49;74187.88;;;-147.06;44.03
21594;BME280;10959;51.328;7.322;2023-06-05T01:51:16;74181.72;;;-147.06;44.06
21594;BME280;10959;51.328;7.322;2023-06-05T01:53:42;74179.69;;;-147.06;44.01
21594;BME280;10959;51.328;7.322;2023-06-05T01:56:10;74179.69;;;-147.06;43.85
21594;BME280;10959;51.328;7.322;2023-06-05T01:58:37;74179.69;;;-147.06;43.67
21594;BME280;10959;51.328;7.322;2023-06-05T02:01:03;74175.59;;;-147.06;43.60
21594;BME280;10959;51.328;7.322;2023-06-05T02:03:30;74175.59;;;-147.06;43.55
21594;BME280;10959;51.328;7.322;2023-06-05T02:05:57;74171.50;;;-147.06;43.56
21594;BME280;10959;51.328;7.322;2023-06-05T02:08:23;74177.63;;;-147.06;43.70
21594;BME280;10959;51.328;7.322;2023-06-05T02:10:50;74177.63;;;-147.06;43.52
21594;BME280;10959;51.328;7.322;2023-06-05T02:13:19;74183.78;;;-147.06;43.80
21594;BME280;10959;51.328;7.322;2023-06-05T02:15:47;74187.88;;;-147.06;44.55
21594;BME280;10959;51.328;7.322;2023-06-05T02:18:17;74204.28;;;-147.06;45.13
21594;BME280;10959;51.328;7.322;2023-06-05T02:20:43;74216.56;;;-147.06;44.73
21594;BME280;10959;51.328;7.322;2023-06-05T02:23:10;74214.50;;;-147.06;45.27
21594;BME280;10959;51.328;7.322;2023-06-05T02:25:37;74232.94;;;-147.06;46.31
21594;BME280;10959;51.328;7.322;2023-06-05T02:28:03;74253.44;;;-147.06;46.63
21594;BME280;10959;51.328;7.322;2023-06-05T02:30:31;74261.63;;;-147.06;46.52
21594;BME280;10959;51.328;7.322;2023-06-05T02:32:58;74257.53;;;-147.06;46.73
21594;BME280;10959;51.328;7.322;2023-06-05T02:35:26;74257.53;;;-147.06;45.92
21594;BME280;10959;51.328;7.322;2023-06-05T02:37:52;74249.34;;;-147.06;46.25
21594;BME280;10959;51.328;7.322;2023-06-05T02:40:19;74253.44;;;-147.06;46.38
21594;BME280;10959;51.328;7.322;2023-06-05T02:42:45;74261.63;;;-147.06;46.22
21594;BME280;10959;51.328;7.322;2023-06-05T02:45:12;74259.59;;;-147.06;46.11
21594;BME280;10959;51.328;7.322;2023-06-05T02:47:40;74263.69;;;-147.06;46.12
21594;BME280;10959;51.328;7.322;2023-06-05T02:50:07;74271.88;;;-147.06;46.47
21594;BME280;10959;51.328;7.322;2023-06-05T02:52:34;74265.72;;;-147.06;45.91
21594;BME280;10959;51.328;7.322;2023-06-05T02:55:00;74269.81;;;-147.06;45.85
21594;BME280;10959;51.328;7.322;2023-06-05T02:57:27;74265.72;;;-147.06;45.94
21594;BME280;10959;51.328;7.322;2023-06-05T02:59:54;74265.72;;;-147.06;45.64
21594;BME280;10959;51.328;7.322;2023-06-05T03:02:20;74265.72;;;-147.06;46.14
21594;BME280;10959;51.328;7.322;2023-06-05T03:04:48;74273.94;;;-147.06;46.49
21594;BME280;10959;51.328;7.322;2023-06-05T03:07:18;74290.31;;;-147.06;46.57
21594;BME280;10959;51.328;7.322;2023-06-05T03:09:45;74294.41;;;-147.06;46.47
21594;BME280;10959;51.328;7.322;2023-06-05T03:12:11;74284.16;;;-147.06;46.85
21594;BME280;10959;51.328;7.322;2023-06-05T03:14:38;74294.41;;;-147.06;46.75
21594;BME280;10959;51.328;7.322;2023-06-05T03:17:04;74286.22;;;-147.06;46.80
21594;BME280;10959;51.328;7.322;2023-06-05T03:19:31;74300.56;;;-147.06;47.29
21594;BME280;10959;51.328;7.322;2023-06-05T03:21:58;74302.59;;;-147.06;47.49
21594;BME280;10959;51.328;7.322;2023-06-05T03:24:25;74319.00;;;-147.06;48.15
21594;BME280;10959;51.328;7.322;2023-06-05T03:26:52;74325.16;;;-147.06;47.54
21594;BME280;10959;51.328;7.322;2023-06-05T03:29:19;74325.16;;;-147.06;47.06
21594;BME280;10959;51.328;7.322;2023-06-05T03:31:45;74323.09;;;-147.06;46.78
21594;BME280;10959;51.328;7.322;2023-06-05T03:34:12;74316.94;;;-147.06;46.17
21594;BME280;10959;51.328;7.322;2023-06-05T03:36:38;74310.81;;;-147.06;46.43
21594;BME280;10959;51.328;7.322;2023-06-05T03:39:07;74304.66;;;-147.06;46.11
21594;BME280;10959;51.328;7.322;2023-06-05T03:41:34;74298.50;;;-147.06;45.99
21594;BME280;10959;51.328;7.322;2023-06-05T03:44:00;74292.38;;;-147.06;45.85
21594;BME280;10959;51.328;7.322;2023-06-05T03:46:28;74300.56;;;-147.06;45.83
21594;BME280;10959;51.328;7.322;2023-06-05T03:48:55;74298.50;;;-147.06;46.06
21594;BME280;10959;51.328;7.322;2023-06-05T03:51:23;74298.50;;;-147.06;45.87
21594;BME280;10959;51.328;7.322;2023-06-05T03:53:55;74300.56;;;-147.06;45.85
21594;BME280;10959;51.328;7.322;2023-06-05T03:56:23;74300.56;;;-147.06;46.45
21594;BME280;10959;51.328;7.322;2023-06-05T03:58:53;74319.00;;;-147.06;46.75
21594;BME280;10959;51.328;7.322;2023-06-05T04:01:19;74327.19;;;-147.06;47.58
21594;BME280;10959;51.328;7.322;2023-06-05T04:03:46;74343.59;;;-147.06;47.50
21594;BME280;10959;51.328;7.322;2023-06-05T04:06:12;74351.78;;;-147.06;48.15
21594;BME280;10959;51.328;7.322;2023-06-05T04:08:39;74357.94;;;-147.06;48.25
21594;BME280;10959;51.328;7.322;2023-06-05T04:11:05;74355.88;;;-147.06;48.30
21594;BME280;10959;51.328;7.322;2023-06-05T04:13:33;74372.25;;;-147.06;49.16
21594;BME280;10959;51.328;7.322;2023-06-05T04:16:00;74386.59;;;-147.06;49.21
21594;BME280;10959;51.328;7.322;2023-06-05T04:18:27;74388.66;;;-147.06;49.07
21594;BME280;10959;51.328;7.322;2023-06-05T04:20:54;74384.56;;;-147.06;49.51
21594;BME280;10959;51.328;7.322;2023-06-05T04:23:20;74388.66;;;-147.06;49.32
21594;BME280;10959;51.328;7.322;2023-06-05T04:25:48;74398.91;;;-147.06;49.63
21594;BME280;10959;51.328;7.322;2023-06-05T04:28:15;74398.91;;;-147.06;49.49
21594;BME280;10959;51.328;7.322;2023-06-05T04:30:43;74380.47;;;-147.06;49.06
21594;BME280;10959;51.328;7.322;2023-06-05T04:33:10;74366.13;;;-147.06;48.81
21594;BME280;10959;51.328;7.322;2023-06-05T04:35:37;74364.06;;;-147.06;48.77
21594;BME280;10959;51.328;7.322;2023-06-05T04:38:04;74368.16;;;-147.06;49.24
21594;BME280;10959;51.328;7.322;2023-06-05T04:40:30;74380.47;;;-147.06;50.23
21594;BME280;10959;51.328;7.322;2023-06-05T04:42:56;74403.00;;;-147.06;50.81
21594;BME280;10959;51.328;7.322;2023-06-05T04:45:23;74425.53;;;-147.06;51.25
21594;BME280;10959;51.328;7.322;2023-06-05T04:47:51;74433.72;;;-147.06;51.69
21594;BME280;10959;51.328;7.322;2023-06-05T04:50:22;74452.16;;;-147.06;51.75
21594;BME280;10959;51.328;7.322;2023-06-05T04:52:50;74458.31;;;-147.06;52.30
21594;BME280;10959;51.328;7.322;2023-06-05T04:55:18;74470.59;;;-147.06;52.89
21594;BME280;10959;51.328;7.322;2023-06-05T04:57:44;74458.31;;;-147.06;52.77
21594;BME280;10959;51.328;7.322;2023-06-05T05:00:12;74433.72;;;-147.06;52.08
21594;BME280;10959;51.328;7.322;2023-06-05T05:02:38;74419.38;;;-147.06;51.80
21594;BME280;10959;51.328;7.322;2023-06-05T05:05:07;74417.34;;;-147.06;51.66
21594;BME280;10959;51.328;7.322;2023-06-05T05:07:34;74409.16;;;-147.06;51.80
21594;BME280;10959;51.328;7.322;2023-06-05T05:10:00;74409.16;;;-147.06;51.66
21594;BME280;10959;51.328;7.322;2023-06-05T05:12:27;74396.84;;;-147.06;51.80
21594;BME280;10959;51.328;7.322;2023-06-05T05:14:53;74392.75;;;-147.06;51.59
21594;BME280;10959;51.328;7.322;2023-06-05T05:17:19;74376.38;;;-147.06;51.36
21594;BME280;10959;51.328;7.322;2023-06-05T05:19:47;74343.59;;;-147.06;51.02
21594;BME280;10959;51.328;7.322;2023-06-05T05:22:15;74347.69;;;-147.06;51.24
21594;BME280;10959;51.328;7.322;2023-06-05T05:24:42;74359.97;;;-147.06;51.41
21594;BME280;10959;51.328;7.322;2023-06-05T05:27:08;74359.97;;;-147.06;51.36
21594;BME280;10959;51.328;7.322;2023-06-05T05:29:35;74355.88;;;-147.06;51.52
21594;BME280;10959;51.328;7.322;2023-06-05T05:32:01;74347.69;;;-147.06;51.19
21594;BME280;10959;51.328;7.322;2023-06-05T05:34:27;74323.09;;;-147.06;50.75
21594;BME280;10959;51.328;7.322;2023-06-05T05:36:54;74319.00;;;-147.06;50.71
21594;BME280;10959;51.328;7.322;2023-06-05T05:39:22;74314.91;;;-147.06;50.69
21594;BME280;10959;51.328;7.322;2023-06-05T05:41:48;74335.38;;;-147.06;50.95
21594;BME280;10959;51.328;7.322;2023-06-05T05:44:15;74319.00;;;-147.06;50.53
21594;BME280;10959;51.328;7.322;2023-06-05T05:46:41;74331.28;;;-147.06;51.09
21594;BME280;10959;51.328;7.322;2023-06-05T05:49:08;74304.66;;;-147.06;50.64
21594;BME280;10959;51.328;7.322;2023-06-05T05:51:35;74282.13;;;-147.06;50.32
21594;BME280;10959;51.328;7.322;2023-06-05T05:54:01;74282.13;;;-147.06;50.62
21594;BME280;10959;51.328;7.322;2023-06-05T05:56:29;74273.94;;;-147.06;50.50
21594;BME280;10959;51.328;7.322;2023-06-05T05:58:55;74261.63;;;-147.06;50.38
21594;BME280;10959;51.328;7.322;2023-06-05T06:01:22;74257.53;;;-147.06;50.26
21594;BME280;10959;51.328;7.322;2023-06-05T06:03:48;74232.94;;;-147.06;50.06
21594;BME280;10959;51.328;7.322;2023-06-05T06:06:14;74208.38;;;-147.06;49.47
21594;BME280;10959;51.328;7.322;2023-06-05T06:08:41;74181.72;;;-147.06;49.05
21594;BME280;10959;51.328;7.322;2023-06-05T06:11:08;74171.50;;;-147.06;48.96
21594;BME280;10959;51.328;7.322;2023-06-05T06:13:36;74148.97;;;-147.06;48.82
21594;BME280;10959;51.328;7.322;2023-06-05T06:16:02;74110.03;;;-147.06;48.44
21594;BME280;10959;51.328;7.322;2023-06-05T06:18:29;74097.75;;;-147.06;47.96
21594;BME280;10959;51.328;7.322;2023-06-05T06:20:55;74085.44;;;-147.06;47.84
21594;BME280;10959;51.328;7.322;2023-06-05T06:23:23;74069.06;;;-147.06;47.63
21594;BME280;10959;51.328;7.322;2023-06-05T06:25:50;74040.38;;;-147.06;47.53
21594;BME280;10959;51.328;7.322;2023-06-05T06:28:17;74005.56;;;-147.06;47.08
21594;BME280;10959;51.328;7.322;2023-06-05T06:30:46;73993.25;;;-147.06;46.72
21594;BME280;10959;51.328;7.322;2023-06-05T06:33:12;73991.22;;;-147.06;46.61
21594;BME280;10959;51.328;7.322;2023-06-05T06:35:38;73987.13;;;-147.06;46.27
21594;BME280;10959;51.328;7.322;2023-06-05T06:38:05;73966.63;;;-147.06;46.52
21594;BME280;10959;51.328;7.322;2023-06-05T06:40:31;73929.75;;;-147.06;46.57
21594;BME280;10959;51.328;7.322;2023-06-05T06:42:58;73915.41;;;-147.06;45.59
21594;BME280;10959;51.328;7.322;2023-06-05T06:45:25;73905.19;;;-147.06;45.34
21594;BME280;10959;51.328;7.322;2023-06-05T06:47:52;73892.88;;;-147.06;45.35
21594;BME280;10959;51.328;7.322;2023-06-05T06:50:19;73886.75;;;-147.06;45.13
21594;BME280;10959;51.328;7.322;2023-06-05T06:52:46;73884.69;;;-147.06;44.92
21594;BME280;10959;51.328;7.322;2023-06-05T06:55:12;73892.88;;;-147.06;44.63
21594;BME280;10959;51.328;7.322;2023-06-05T06:57:39;73901.06;;;-147.06;44.94
21594;BME280;10959;51.328;7.322;2023-06-05T07:00:07;73872.41;;;-147.06;44.85
21594;BME280;10959;51.328;7.322;2023-06-05T07:02:36;73856.00;;;-147.06;44.48
21594;BME280;10959;51.328;7.322;2023-06-05T07:05:04;73862.16;;;-147.06;44.46
21594;BME280;10959;51.328;7.322;2023-06-05T07:07:31;73856.00;;;-147.06;44.06
21594;BME280;10959;51.328;7.322;2023-06-05T07:09:58;73835.53;;;-147.06;44.46
21594;BME280;10959;51.328;7.322;2023-06-05T07:12:24;73800.69;;;-147.06;44.66
21594;BME280;10959;51.328;7.322;2023-06-05T07:14:50;73755.63;;;-147.06;43.20
21594;BME280;10959;51.328;7.322;2023-06-05T07:17:17;73739.25;;;-147.06;43.66
21594;BME280;10959;51.328;7.322;2023-06-05T07:19:43;73729.00;;;-147.06;42.60
21594;BME280;10959;51.328;7.322;2023-06-05T07:22:11;73731.06;;;-147.06;42.03
21594;BME280;10959;51.328;7.322;2023-06-05T07:24:38;73716.72;;;-147.06;42.62
21594;BME280;10959;51.328;7.322;2023-06-05T07:27:05;73692.13;;;-147.06;42.22
21594;BME280;10959;51.328;7.322;2023-06-05T07:29:33;73659.34;;;-147.06;42.00
21594;BME280;10959;51.328;7.322;2023-06-05T07:32:00;73632.72;;;-147.06;41.68
21594;BME280;10959;51.328;7.322;2023-06-05T07:34:30;73602.00;;;-147.06;41.15
21594;BME280;10959;51.328;7.322;2023-06-05T07:36:59;73597.91;;;-147.06;40.71
21594;BME280;10959;51.328;7.322;2023-06-05T07:39:27;73640.94;;;-147.06;39.84
21594;BME280;10959;51.328;7.322;2023-06-05T07:41:54;73634.78;;;-147.06;40.03
21594;BME280;10959;51.328;7.322;2023-06-05T07:44:21;73614.28;;;-147.06;40.87
21594;BME280;10959;51.328;7.322;2023-06-05T07:46:48;73610.19;;;-147.06;40.11
21594;BME280;10959;51.328;7.322;2023-06-05T07:49:15;73622.50;;;-147.06;39.59
21594;BME280;10959;51.328;7.322;2023-06-05T07:51:42;73606.09;;;-147.06;39.96
21594;BME280;10959;51.328;7.322;2023-06-05T07:54:10;73573.31;;;-147.06;39.74
21594;BME280;10959;51.328;7.322;2023-06-05T07:56:39;73552.84;;;-147.06;39.47
21594;BME280;10959;51.328;7.322;2023-06-05T07:59:07;73577.44;;;-147.06;38.93
21594;BME280;10959;51.328;7.322;2023-06-05T08:01:35;73561.03;;;-147.06;39.71
21594;BME280;10959;51.328;7.322;2023-06-05T08:04:02;73544.66;;;-147.06;38.98
21594;BME280;10959;51.328;7.322;2023-06-05T08:06:28;73532.38;;;-147.06;38.37
21594;BME280;10959;51.328;7.322;2023-06-05T08:08:55;73511.88;;;-147.06;38.29
21594;BME280;10959;51.328;7.322;2023-06-05T08:11:22;73479.09;;;-147.06;38.03
21594;BME280;10959;51.328;7.322;2023-06-05T08:13:49;73462.72;;;-147.06;37.72
21594;BME280;10959;51.328;7.322;2023-06-05T08:16:16;73481.16;;;-147.06;36.57
21594;BME280;10959;51.328;7.322;2023-06-05T08:18:42;73475.00;;;-147.06;37.61
21594;BME280;10959;51.328;7.322;2023-06-05T08:21:09;73470.91;;;-147.06;37.13
21594;BME280;10959;51.328;7.322;2023-06-05T08:23:36;73429.94;;;-147.06;37.69
21594;BME280;10959;51.328;7.322;2023-06-05T08:26:02;73393.06;;;-147.06;36.77
21594;BME280;10959;51.328;7.322;2023-06-05T08:28:35;73395.13;;;-147.06;36.31
21594;BME280;10959;51.328;7.322;2023-06-05T08:31:03;73364.41;;;-147.06;36.08
21594;BME280;10959;51.328;7.322;2023-06-05T08:33:31;73339.81;;;-147.06;35.30
21594;BME280;10959;51.328;7.322;2023-06-05T08:35:57;73352.13;;;-147.06;36.21
21594;BME280;10959;51.328;7.322;2023-06-05T08:38:23;73313.19;;;-147.06;36.29
21594;BME280;10959;51.328;7.322;2023-06-05T08:40:55;73280.44;;;-147.06;36.40
21594;BME280;10959;51.328;7.322;2023-06-05T08:43:23;73262.00;;;-147.06;35.27
21594;BME280;10959;51.328;7.322;2023-06-05T08:45:51;73348.00;;;-147.06;35.16
21594;BME280;10959;51.328;7.322;2023-06-05T08:48:20;73384.88;;;-147.06;35.91
21594;BME280;10959;51.328;7.322;2023-06-05T08:50:47;73339.81;;;-147.06;36.32
21594;BME280;10959;51.328;7.322;2023-06-05T08:53:16;73278.38;;;-147.06;36.52
21594;BME280;10959;51.328;7.322;2023-06-05T08:55:43;73257.91;;;-147.06;35.37
21594;BME280;10959;51.328;7.322;2023-06-05T08:58:13;73210.78;;;-147.06;36.43
21594;BME280;10959;51.328;7.322;2023-06-05T09:00:40;73216.94;;;-147.06;34.90
21594;BME280;10959;51.328;7.322;2023-06-05T09:03:06;73212.84;;;-147.06;34.73
21594;BME280;10959;51.328;7.322;2023-06-05T09:05:34;73206.69;;;-147.06;35.49
21594;BME280;10959;51.328;7.322;2023-06-05T09:08:00;73188.25;;;-147.06;35.53
21594;BME280;10959;51.328;7.322;2023-06-05T09:10:28;73143.19;;;-147.06;35.99
21594;BME280;10959;51.328;7.322;2023-06-05T09:12:56;73139.09;;;-147.06;35.09
21594;BME280;10959;51.328;7.322;2023-06-05T09:15:24;73143.19;;;-147.06;35.02
21594;BME280;10959;51.328;7.322;2023-06-05T09:18:08;73147.28;;;-147.06;35.11
21594;BME280;10959;51.328;7.322;2023-06-05T09:20:40;73085.84;;;-147.06;36.07
21594;BME280;10959;51.328;7.322;2023-06-05T09:23:22;73075.59;;;-147.06;35.36
21594;BME280;10959;51.328;7.322;2023-06-05T09:25:49;73020.31;;;-147.06;34.83
21594;BME280;10959;51.328;7.322;2023-06-05T09:28:16;73012.13;;;-147.06;34.03
21594;BME280;10959;51.328;7.322;2023-06-05T09:30:56;73038.75;;;-147.06;34.26
21594;BME280;10959;51.328;7.322;2023-06-05T09:33:24;73036.69;;;-147.06;32.55
21594;BME280;10959;51.328;7.322;2023-06-05T09:36:06;73028.50;;;-147.06;33.93
21594;BME280;10959;51.328;7.322;2023-06-05T09:38:33;72979.34;;;-147.06;32.62
21594;BME280;10959;51.328;7.322;2023-06-05T09:41:02;72991.63;;;-147.06;32.71
21594;BME280;10959;51.328;7.322;2023-06-05T09:43:29;73018.25;;;-147.06;32.03
21594;BME280;10959;51.328;7.322;2023-06-05T09:45:55;73026.44;;;-147.06;32.76
21594;BME280;10959;51.328;7.322;2023-06-05T09:48:22;72975.25;;;-147.06;33.54
21594;BME280;10959;51.328;7.322;2023-06-05T09:50:50;72954.78;;;-147.06;32.39
21594;BME280;10959;51.328;7.322;2023-06-05T09:53:19;72969.09;;;-147.06;31.55
21594;BME280;10959;51.328;7.322;2023-06-05T09:55:46;72971.16;;;-147.06;32.26
21594;BME280;10959;51.328;7.322;2023-06-05T09:58:14;72954.78;;;-147.06;32.61
21594;BME280;10959;51.328;7.322;2023-06-05T10:00:42;72971.16;;;-147.06;32.23
21594;BME280;10959;51.328;7.322;2023-06-05T10:03:13;72956.81;;;-147.06;33.00
21594;BME280;10959;51.328;7.322;2023-06-05T10:05:42;72962.97;;;-147.06;31.02
21594;BME280;10959;51.328;7.322;2023-06-05T10:08:11;73061.28;;;-147.06;30.95
21594;BME280;10959;51.328;7.322;2023-06-05T10:10:39;73100.19;;;-147.06;31.84
21594;BME280;10959;51.328;7.322;2023-06-05T10:13:05;73067.41;;;-147.06;32.36
21594;BME280;10959;51.328;7.322;2023-06-05T10:15:32;73020.31;;;-147.06;31.75
21594;BME280;10959;51.328;7.322;2023-06-05T10:18:00;73053.09;;;-147.06;31.48
21594;BME280;10959;51.328;7.322;2023-06-05T10:20:27;73010.06;;;-147.06;32.05
21594;BME280;10959;51.328;7.322;2023-06-05T10:22:54;72975.25;;;-147.06;30.76
21594;BME280;10959;51.328;7.322;2023-06-05T10:25:22;72934.28;;;-147.06;30.88
21594;BME280;10959;51.328;7.322;2023-06-05T10:28:03;72926.09;;;-147.06;31.32
21594;BME280;10959;51.328;7.322;2023-06-05T10:31:04;72903.56;;;-147.06;30.76
21594;BME280;10959;51.328;7.322;2023-06-05T10:33:51;72868.75;;;-147.06;30.67
21594;BME280;10959;51.328;7.322;2023-06-05T10:36:31;72862.63;;;-147.06;30.54
21594;BME280;10959;51.328;7.322;2023-06-05T10:39:06;72825.75;;;-147.06;31.04
21594;BME280;10959;51.328;7.322;2023-06-05T10:41:33;72805.28;;;-147.06;30.99
21594;BME280;10959;51.328;7.322;2023-06-05T10:44:02;72817.56;;;-147.06;29.88
21594;BME280;10959;51.328;7.322;2023-06-05T10:46:31;72850.31;;;-147.06;31.09
21594;BME280;10959;51.328;7.322;2023-06-05T10:49:08;72881.03;;;-147.06;30.83
21594;BME280;10959;51.328;7.322;2023-06-05T10:51:37;72891.28;;;-147.06;30.33
21594;BME280;10959;51.328;7.322;2023-06-05T10:54:05;72868.75;;;-147.06;30.80
21594;BME280;10959;51.328;7.322;2023-06-05T10:57:00;72870.81;;;-147.06;29.91
21594;BME280;10959;51.328;7.322;2023-06-05T10:59:30;72827.78;;;-147.06;29.50
21594;BME280;10959;51.328;7.322;2023-06-05T11:02:25;72862.63;;;-147.06;29.46
21594;BME280;10959;51.328;7.322;2023-06-05T11:05:08;72870.81;;;-147.06;29.07
21594;BME280;10959;51.328;7.322;2023-06-05T11:07:37;72860.56;;;-147.06;29.30
21594;BME280;10959;51.328;7.322;2023-06-05T11:10:15;72848.28;;;-147.06;29.34
21594;BME280;10959;51.328;7.322;2023-06-05T11:12:58;72913.81;;;-147.06;29.30
21594;BME280;10959;51.328;7.322;2023-06-05T11:15:50;72926.09;;;-147.06;29.17
21594;BME280;10959;51.328;7.322;2023-06-05T11:18:29;72922.00;;;-147.06;29.39
21594;BME280;10959;51.328;7.322;2023-06-05T11:20:56;72881.03;;;-147.06;29.48
21594;BME280;10959;51.328;7.322;2023-06-05T11:23:23;72838.03;;;-147.06;29.51
21594;BME280;10959;51.328;7.322;2023-06-05T11:25:53;72790.94;;;-147.06;29.34
21594;BME280;10959;51.328;7.322;2023-06-05T11:28:41;72795.03;;;-147.06;29.58
21594;BME280;10959;51.328;7.322;2023-06-05T11:31:10;72770.47;;;-147.06;28.99
21594;BME280;10959;51.328;7.322;2023-06-05T11:33:36;72760.22;;;-147.06;29.14
21594;BME280;10959;51.328;7.322;2023-06-05T11:36:05;72727.44;;;-147.06;29.15
21594;BME280;10959;51.328;7.322;2023-06-05T11:38:33;72729.50;;;-147.06;28.72
21594;BME280;10959;51.328;7.322;2023-06-05T11:41:05;72756.13;;;-147.06;28.49
21594;BME280;10959;51.328;7.322;2023-06-05T11:43:33;72721.31;;;-147.06;28.78
21594;BME280;10959;51.328;7.322;2023-06-05T11:45:59;72731.53;;;-147.06;28.40
21594;BME280;10959;51.328;7.322;2023-06-05T11:48:29;72745.88;;;-147.06;29.02
21594;BME280;10959;51.328;7.322;2023-06-05T11:50:58;72709.03;;;-147.06;28.09
21594;BME280;10959;51.328;7.322;2023-06-05T11:53:25;72696.72;;;-147.06;28.43
21594;BME280;10959;51.328;7.322;2023-06-05T11:55:52;72717.22;;;-147.06;27.71
21594;BME280;10959;51.328;7.322;2023-06-05T11:58:34;72696.72;;;-147.06;28.23
21594;BME280;10959;51.328;7.322;2023-06-05T12:01:06;72676.25;;;-147.06;27.78
21594;BME280;10959;51.328;7.322;2023-06-05T12:03:34;72674.19;;;-147.06;27.57
21594;BME280;10959;51.328;7.322;2023-06-05T12:06:01;72663.97;;;-147.06;27.55
21594;BME280;10959;51.328;7.322;2023-06-05T12:08:29;72655.78;;;-147.06;28.03
21594;BME280;10959;51.328;7.322;2023-06-05T12:10:57;72651.69;;;-147.06;28.59
21594;BME280;10959;51.328;7.322;2023-06-05T12:13:45;72692.63;;;-147.06;27.94
21594;BME280;10959;51.328;7.322;2023-06-05T12:16:12;72709.03;;;-147.06;27.87
21594;BME280;10959;51.328;7.322;2023-06-05T12:18:40;72684.44;;;-147.06;28.31
21594;BME280;10959;51.328;7.322;2023-06-05T12:21:19;72692.63;;;-147.06;28.35
21594;BME280;10959;51.328;7.322;2023-06-05T12:23:45;72721.31;;;-147.06;27.60
21594;BME280;10959;51.328;7.322;2023-06-05T12:26:12;72704.91;;;-147.06;27.94
21594;BME280;10959;51.328;7.322;2023-06-05T12:28:38;72690.59;;;-147.06;27.56
21594;BME280;10959;51.328;7.322;2023-06-05T12:31:05;72713.13;;;-147.06;27.96
21594;BME280;10959;51.328;7.322;2023-06-05T12:33:32;72704.91;;;-147.06;27.71
21594;BME280;10959;51.328;7.322;2023-06-05T12:36:06;72737.69;;;-147.06;27.56
21594;BME280;10959;51.328;7.322;2023-06-05T12:38:37;72717.22;;;-147.06;28.49
21594;BME280;10959;51.328;7.322;2023-06-05T12:41:04;72731.53;;;-147.06;28.49
21594;BME280;10959;51.328;7.322;2023-06-05T12:43:31;72733.59;;;-147.06;27.77
21594;BME280;10959;51.328;7.322;2023-06-05T12:45:58;72692.63;;;-147.06;28.57